KSMF/SMF METAR and TAF weather

Enter ICAO airport designator
Station Type Date Time Source
KSMF METAR 2020/09/18 05:53 UTC NOAA

KSMF 180553Z 21008KT 10SM FEW250 20/13 A2991 RMK AO2 SLP126 T02000128 10322 20200 51012


Station Type Date Time Source
KSMF Decoded METAR 2020/09/18 05:53 UTC NOAA

SACRAMENTO INTERNATIONAL AIRPORT, CA, United States (KSMF) 38-42N 121-36W 6M
Sep 18, 2020 - 01:53 AM EDT / 2020.09.18 0553 UTC
Wind: from the SSW (210 degrees) at 9 MPH (8 KT):0
Visibility: 10 mile(s):0
Sky conditions: mostly clear
Temperature: 68.0 F (20.0 C)
Dew Point: 55.0 F (12.8 C)
Relative Humidity: 63%
Pressure (altimeter): 29.91 in. Hg (1012 hPa)
Pressure tendency: 0.04 inches (1.2 hPa) higher than three hours ago
ob: KSMF 180553Z 21008KT 10SM FEW250 20/13 A2991 RMK AO2 SLP126 T02000128 10322 20200 51012
cycle: 6

Station Type Date Time Source
KSMF TAF 2020/09/18 06:39 UTC NOAA

TAF KSMF 180537Z 1806/1906 15008KT P6SM BKN250
FM182000 18007KT P6SM SCT250

Example: see airport list